Time;durP1;ratioP1;P1;durP2;ratioP2;P2;SDS_P1;SDS_P2;PMS_P1;PMS_P2;Temp;Humidity;BMP_temperature;BMP_pressure;BME280_temperature;BME280_humidity;BME280_pressure;Samples;Min_cycle;Max_cycle;Signal;HPM_P1;HPM_P2
2022/01/09 00:00:09;;;;;;;14.40;13.30;;;;;;;2.78;86.36;91928.38;5011969;28;20215;-87
2022/01/09 00:02:35;;;;;;;15.77;14.40;;;;;;;2.95;85.58;91947.06;5011080;28;20287;-88
2022/01/09 00:05:00;;;;;;;14.43;13.13;;;;;;;2.37;88.08;91934.25;5012217;28;20291;-88
2022/01/09 00:07:26;;;;;;;15.60;14.40;;;;;;;2.73;88.44;91948.97;5010797;28;20252;-83
2022/01/09 00:09:51;;;;;;;13.23;12.33;;;;;;;2.88;86.11;91956.81;5011363;28;20295;-86
2022/01/09 00:12:17;;;;;;;13.47;12.27;;;;;;;2.71;87.36;91956.16;5011585;28;20262;-86
2022/01/09 00:14:42;;;;;;;13.10;12.10;;;;;;;2.48;88.57;91944.41;5010836;28;20215;-87
2022/01/09 00:17:08;;;;;;;12.37;11.50;;;;;;;3.02;86.79;91952.75;5010749;28;20307;-86
2022/01/09 00:19:33;;;;;;;11.97;11.13;;;;;;;3.23;84.73;91952.66;5012489;28;20191;-87
2022/01/09 00:21:59;;;;;;;14.67;13.47;;;;;;;3.32;84.03;91947.78;5009264;28;20227;-87
2022/01/09 00:24:24;;;;;;;17.70;16.13;;;;;;;2.58;88.10;91925.69;5009704;28;20690;-87
2022/01/09 00:26:50;;;;;;;15.67;14.27;;;;;;;2.80;88.26;91954.69;5011040;28;20233;-83
2022/01/09 00:29:15;;;;;;;14.23;13.13;;;;;;;3.08;86.71;91946.63;5011055;28;20254;-83
2022/01/09 00:31:41;;;;;;;13.87;12.67;;;;;;;2.89;86.47;91930.78;5010439;28;20231;-87
2022/01/09 00:34:06;;;;;;;13.93;12.73;;;;;;;2.80;87.65;91908.31;5010597;28;20206;-87
2022/01/09 00:36:32;;;;;;;13.40;12.20;;;;;;;2.88;86.69;91910.44;5010427;28;20238;-87
2022/01/09 00:38:57;;;;;;;14.37;13.00;;;;;;;3.23;85.98;91919.13;5010255;28;20254;-86
2022/01/09 00:41:23;;;;;;;16.50;15.03;;;;;;;3.38;85.22;91941.59;5009277;28;20247;-87
2022/01/09 00:43:50;;;;;;;16.37;14.87;;;;;;;2.98;87.32;91941.41;5010947;28;20199;-87
2022/01/09 00:46:15;;;;;;;14.57;13.37;;;;;;;2.71;88.25;91914.94;5009657;28;20299;-87
2022/01/09 00:48:40;;;;;;;14.97;13.67;;;;;;;3.11;87.12;91933.25;5010312;28;20195;-87
2022/01/09 00:51:06;;;;;;;14.90;13.50;;;;;;;3.26;86.59;91920.41;5010684;28;20287;-87
2022/01/09 00:53:31;;;;;;;15.60;14.20;;;;;;;3.43;85.91;91933.91;5010706;28;20211;-87
2022/01/09 00:55:57;;;;;;;15.57;14.20;;;;;;;3.29;85.85;91923.28;5009866;28;20234;-88
2022/01/09 00:58:22;;;;;;;14.20;13.03;;;;;;;3.16;86.29;91939.19;5010519;28;20176;-87
2022/01/09 01:00:48;;;;;;;14.33;13.10;;;;;;;3.14;86.94;91943.81;5009069;28;20231;-87
2022/01/09 01:03:13;;;;;;;15.17;13.90;;;;;;;2.83;88.30;91938.75;5010785;28;20242;-89
2022/01/09 01:05:39;;;;;;;15.20;13.70;;;;;;;3.12;87.88;91945.88;5010549;28;20238;-87
2022/01/09 01:08:04;;;;;;;14.57;13.37;;;;;;;3.08;87.85;91946.63;5008636;28;20242;-88
2022/01/09 01:10:30;;;;;;;13.30;12.10;;;;;;;3.09;87.90;91935.28;5010185;28;20259;-82
2022/01/09 01:12:55;;;;;;;15.43;14.13;;;;;;;2.65;88.38;91926.22;5009605;28;20225;-84
2022/01/09 01:15:21;;;;;;;14.47;13.37;;;;;;;2.67;89.38;91919.81;5010025;28;20195;-86
2022/01/09 01:17:46;;;;;;;14.77;13.67;;;;;;;3.13;87.08;91919.06;5010536;28;20206;-87
2022/01/09 01:20:13;;;;;;;14.93;13.63;;;;;;;2.70;88.49;91915.97;5010398;28;20210;-83
2022/01/09 01:22:40;;;;;;;13.37;12.33;;;;;;;2.69;89.01;91917.00;5011300;28;20202;-88
2022/01/09 01:25:06;;;;;;;13.93;12.63;;;;;;;3.05;87.67;91913.63;5010413;28;20218;-86
2022/01/09 01:27:32;;;;;;;16.40;14.90;;;;;;;3.14;86.43;91899.97;5009102;28;20298;-87
2022/01/09 01:29:57;;;;;;;16.20;14.80;;;;;;;2.66;88.28;91904.63;5009719;28;20180;-88
2022/01/09 01:32:23;;;;;;;16.57;14.97;;;;;;;2.84;88.85;91904.19;5008468;28;20242;-88
2022/01/09 01:34:49;;;;;;;15.33;13.83;;;;;;;2.95;87.65;91906.59;5009459;28;20278;-88
2022/01/09 01:37:14;;;;;;;16.03;14.63;;;;;;;2.95;86.98;91890.34;5008975;28;20314;-88
2022/01/09 01:39:40;;;;;;;16.77;15.17;;;;;;;2.98;86.15;91889.84;5009136;28;20230;-88
2022/01/09 01:42:06;;;;;;;17.67;16.07;;;;;;;3.17;86.97;91902.06;5009519;28;20223;-88
2022/01/09 01:44:58;;;;;;;16.50;14.97;;;;;;;2.96;87.84;91900.41;5010330;28;20551;-84
2022/01/09 01:47:23;;;;;;;15.47;14.00;;;;;;;3.09;86.82;91891.44;5006098;28;20223;-78
2022/01/09 01:49:49;;;;;;;15.93;14.37;;;;;;;2.53;88.97;91882.63;5009932;28;20256;-87
2022/01/09 01:52:18;;;;;;;16.27;14.77;;;;;;;2.90;88.85;91883.38;5024570;28;20231;-89
2022/01/09 01:54:44;;;;;;;16.70;15.17;;;;;;;3.01;87.15;91869.50;5009128;28;20215;-93
2022/01/09 01:57:10;;;;;;;15.00;13.70;;;;;;;2.90;87.52;91860.16;5010307;28;20223;-90
2022/01/09 01:59:36;;;;;;;15.50;14.20;;;;;;;3.18;86.86;91874.47;5009600;28;20262;-91
2022/01/09 02:02:02;;;;;;;14.23;13.13;;;;;;;3.09;86.93;91868.25;5009375;28;20259;-93
2022/01/09 02:04:28;;;;;;;14.20;13.00;;;;;;;3.24;85.85;91868.31;5009509;28;20206;-89
2022/01/09 02:06:54;;;;;;;14.67;13.47;;;;;;;3.22;86.41;91865.22;5009076;28;20219;-90
2022/01/09 02:09:20;;;;;;;15.27;13.90;;;;;;;3.27;86.38;91875.53;5009382;28;20195;-91
2022/01/09 02:11:46;;;;;;;16.30;14.87;;;;;;;3.08;86.41;91836.53;5010040;28;20283;-92
2022/01/09 02:14:12;;;;;;;20.50;17.37;;;;;;;3.18;86.26;91859.00;5009324;28;20219;-92
2022/01/09 02:16:42;;;;;;;16.93;15.23;;;;;;;2.85;87.94;91856.78;5009302;28;20242;-92
2022/01/09 02:19:11;;;;;;;17.03;15.33;;;;;;;3.12;88.09;91840.16;5010455;28;20222;-91
2022/01/09 02:21:40;;;;;;;14.40;13.13;;;;;;;3.35;86.61;91849.25;5008462;28;20227;-86
2022/01/09 02:24:05;;;;;;;15.43;13.97;;;;;;;2.89;88.72;91824.34;5010592;28;20194;-92
2022/01/09 02:26:30;;;;;;;14.53;13.43;;;;;;;3.29;86.69;91837.38;5008932;28;20239;-91
2022/01/09 02:28:56;;;;;;;12.77;11.77;;;;;;;3.18;87.00;91841.72;5009898;28;20203;-92
2022/01/09 02:31:21;;;;;;;12.90;12.00;;;;;;;3.05;87.44;91841.44;5007986;28;20258;-89
2022/01/09 02:33:47;;;;;;;12.50;11.50;;;;;;;3.08;87.32;91823.63;5023844;28;20222;-88
2022/01/09 02:36:13;;;;;;;15.07;13.93;;;;;;;3.42;86.47;91824.00;5009761;28;20223;-90
2022/01/09 02:38:38;;;;;;;14.67;13.67;;;;;;;3.01;88.19;91804.28;5008517;28;20231;-91
2022/01/09 02:41:04;;;;;;;14.93;13.83;;;;;;;3.10;88.22;91810.50;5008154;28;20238;-91
2022/01/09 02:43:29;;;;;;;14.03;12.87;;;;;;;2.85;88.89;91816.31;5010325;28;20625;-91
2022/01/09 02:46:43;;;;;;;15.03;13.77;;;;;;;2.68;90.20;91817.53;5008145;28;20254;-91
2022/01/09 02:48:45;;;;;;;14.10;12.93;;;;;;;2.70;89.70;91792.28;5002218;28;20246;-91
2022/01/09 02:51:14;;;;;;;14.60;13.50;;;;;;;2.68;90.28;91802.84;5009537;28;20231;-91
2022/01/09 02:53:44;;;;;;;15.30;13.87;;;;;;;3.18;88.66;91803.06;5009420;28;20293;-84
2022/01/09 02:56:10;;;;;;;13.93;12.83;;;;;;;3.12;88.25;91811.03;5009456;28;20223;-89
2022/01/09 02:58:41;;;;;;;13.87;12.77;;;;;;;2.89;88.46;91808.88;5009164;28;20180;-91
2022/01/09 03:01:09;;;;;;;13.93;12.83;;;;;;;2.67;90.97;91811.59;5008362;28;20218;-87
2022/01/09 03:03:36;;;;;;;14.40;13.13;;;;;;;3.08;89.58;91807.41;5008081;28;20190;-78
2022/01/09 03:06:02;;;;;;;13.17;12.10;;;;;;;3.49;86.09;91811.63;5007567;28;20235;-90
2022/01/09 03:08:28;;;;;;;12.20;11.30;;;;;;;2.99;88.40;91803.75;5007975;28;21149;-92
2022/01/09 03:10:54;;;;;;;12.77;11.87;;;;;;;3.04;90.08;91801.97;5011192;28;20298;-90
2022/01/09 03:13:19;;;;;;;13.93;12.93;;;;;;;3.25;87.32;91787.34;5012074;28;20238;-90
2022/01/09 03:15:45;;;;;;;13.60;12.60;;;;;;;3.20;88.46;91789.91;5011910;28;20223;-82
2022/01/09 03:18:12;;;;;;;13.17;12.27;;;;;;;3.47;85.95;91774.25;5027983;28;20250;-88
2022/01/09 03:20:38;;;;;;;12.37;11.60;;;;;;;3.37;87.19;91787.88;5012354;28;20234;-90
2022/01/09 03:23:03;;;;;;;12.30;11.40;;;;;;;3.59;86.19;91788.44;5011718;28;20199;-89
2022/01/09 03:25:29;;;;;;;13.17;12.37;;;;;;;3.33;86.61;91778.34;5013162;28;20287;-90
2022/01/09 03:27:56;;;;;;;12.60;11.70;;;;;;;3.30;87.83;91780.38;5009864;28;20192;-90
2022/01/09 03:30:23;;;;;;;12.33;11.43;;;;;;;3.40;86.93;91784.78;5012285;28;20275;-90
2022/01/09 03:32:51;;;;;;;13.37;12.47;;;;;;;3.65;86.16;91782.25;5012756;28;20210;-90
2022/01/09 03:35:19;;;;;;;13.33;12.23;;;;;;;3.41;86.89;91785.56;5012618;28;20200;-88
2022/01/09 03:37:46;;;;;;;14.17;13.07;;;;;;;3.11;88.50;91787.03;5012696;28;20184;-91
2022/01/09 03:40:20;;;;;;;12.60;11.60;;;;;;;3.51;88.26;91786.38;5008657;28;20295;-79
2022/01/09 03:42:47;;;;;;;14.23;13.13;;;;;;;3.75;86.61;91787.41;5011016;28;20199;-91
2022/01/09 03:45:13;;;;;;;13.10;12.10;;;;;;;3.34;87.73;91780.66;5010020;28;20241;-84
2022/01/09 03:47:39;;;;;;;13.27;12.27;;;;;;;3.50;88.26;91782.25;5011781;28;20286;-89
2022/01/09 03:50:07;;;;;;;14.80;13.33;;;;;;;3.84;86.27;91770.41;5012222;28;20188;-90
2022/01/09 03:52:36;;;;;;;15.07;13.73;;;;;;;3.81;85.75;91780.47;5011464;28;20307;-85
2022/01/09 03:55:03;;;;;;;17.97;16.10;;;;;;;3.48;86.72;91755.91;5011968;28;20267;-90
2022/01/09 03:57:28;;;;;;;17.27;15.43;;;;;;;3.48;86.77;91775.78;5012295;28;20237;-90
2022/01/09 03:59:55;;;;;;;15.30;13.83;;;;;;;3.64;86.09;91749.75;5011306;28;20259;-92
2022/01/09 04:02:20;;;;;;;15.60;14.20;;;;;;;3.77;84.86;91728.56;5010272;28;20239;-90
2022/01/09 04:04:46;;;;;;;15.87;14.53;;;;;;;3.70;85.12;91764.19;5012738;28;20223;-91
2022/01/09 04:07:11;;;;;;;14.70;13.30;;;;;;;3.17;87.77;91764.63;5010751;28;20534;-90
2022/01/09 04:09:39;;;;;;;15.23;13.87;;;;;;;3.40;87.20;91774.47;5011968;28;20191;-85
2022/01/09 04:12:15;;;;;;;16.67;15.07;;;;;;;3.65;85.80;91766.00;5012038;28;20223;-88
2022/01/09 04:14:47;;;;;;;15.07;13.67;;;;;;;3.32;86.94;91772.38;5011328;28;20745;-90
2022/01/09 04:20:07;;;;;;;17.07;15.43;;;;;;;3.66;86.03;91767.56;5003539;28;20258;-89
2022/01/09 04:22:32;;;;;;;14.77;13.10;;;;;;;3.38;86.14;91758.47;5009675;28;20241;-86
2022/01/09 04:24:58;;;;;;;16.33;14.77;;;;;;;3.01;87.56;91743.19;5011860;28;20219;-88
2022/01/09 04:27:23;;;;;;;15.87;14.27;;;;;;;3.49;87.29;91767.78;5011413;28;20293;-90
2022/01/09 04:29:49;;;;;;;15.93;14.53;;;;;;;3.69;85.12;91765.22;5010703;28;20205;-90
2022/01/09 04:32:14;;;;;;;17.17;15.47;;;;;;;3.56;86.21;91758.00;5011983;28;20223;-91
2022/01/09 04:34:40;;;;;;;16.53;14.90;;;;;;;3.57;85.56;91740.69;5010855;28;20270;-90
2022/01/09 04:37:05;;;;;;;17.27;15.67;;;;;;;3.37;86.10;91756.16;5011258;28;22345;-90
2022/01/09 04:39:31;;;;;;;16.73;15.23;;;;;;;3.00;88.13;91738.28;5010532;28;20236;-89
2022/01/09 04:41:57;;;;;;;16.10;14.70;;;;;;;3.22;88.22;91751.75;5011049;28;20234;-90
2022/01/09 04:44:23;;;;;;;15.17;13.80;;;;;;;3.39;88.23;91741.97;5009838;28;20188;-91
2022/01/09 04:46:57;;;;;;;13.90;12.90;;;;;;;3.45;88.66;91751.28;5009150;28;20215;-91
2022/01/09 04:49:25;;;;;;;12.97;12.07;;;;;;;3.71;87.17;91745.09;5008621;28;20179;-82
2022/01/09 04:51:51;;;;;;;12.43;11.53;;;;;;;3.65;86.64;91759.03;5008298;28;20264;-81
2022/01/09 04:54:16;;;;;;;12.20;11.20;;;;;;;3.72;87.53;91756.97;5009176;28;20223;-81
2022/01/09 04:56:42;;;;;;;13.03;12.13;;;;;;;3.51;87.06;91739.13;5010547;28;20219;-80
2022/01/09 04:59:07;;;;;;;12.87;11.97;;;;;;;3.64;87.66;91741.22;5009733;28;20195;-82
2022/01/09 05:01:33;;;;;;;13.10;12.03;;;;;;;3.78;85.79;91742.25;5008347;28;20299;-80
2022/01/09 05:03:58;;;;;;;14.13;13.00;;;;;;;3.75;87.08;91759.03;5009319;28;20194;-80
2022/01/09 05:06:24;;;;;;;14.50;13.17;;;;;;;3.96;86.10;91763.16;5007971;28;20338;-80
2022/01/09 05:08:49;;;;;;;14.67;13.57;;;;;;;3.98;86.09;91755.94;5007629;28;20206;-88
2022/01/09 05:11:15;;;;;;;13.33;12.33;;;;;;;4.05;84.26;91750.50;5010209;28;20227;-91
2022/01/09 05:13:40;;;;;;;14.10;12.80;;;;;;;3.98;84.89;91743.03;5008641;28;20215;-90
2022/01/09 05:16:06;;;;;;;15.57;14.27;;;;;;;3.54;86.84;91754.88;5008911;28;21077;-90
2022/01/09 05:18:39;;;;;;;16.33;14.83;;;;;;;3.68;86.88;91758.50;5011047;28;20893;-89
2022/01/09 05:21:05;;;;;;;14.70;13.30;;;;;;;3.80;86.00;91750.53;5008526;28;20238;-84
2022/01/09 05:23:30;;;;;;;14.03;13.03;;;;;;;3.38;86.93;91750.72;5010075;28;20202;-88
2022/01/09 05:25:56;;;;;;;14.70;13.50;;;;;;;3.05;88.86;91735.72;5009825;28;20238;-89
2022/01/09 05:28:21;;;;;;;15.23;14.13;;;;;;;3.36;88.67;91757.97;5008659;28;20183;-89
2022/01/09 05:30:46;;;;;;;14.00;12.83;;;;;;;3.78;86.11;91745.63;5010234;28;20235;-91
2022/01/09 05:33:12;;;;;;;14.93;13.60;;;;;;;3.91;84.56;91736.56;5007838;28;20246;-91
2022/01/09 05:35:37;;;;;;;16.57;15.07;;;;;;;3.87;84.27;91723.41;5025347;28;20303;-92
2022/01/09 05:38:03;;;;;;;16.03;14.60;;;;;;;3.75;85.22;91730.63;5009619;28;20312;-91
2022/01/09 05:40:28;;;;;;;16.63;14.93;;;;;;;3.95;84.66;91748.72;5008652;28;20187;-83
2022/01/09 05:42:54;;;;;;;17.40;15.80;;;;;;;3.40;84.93;91699.66;5009654;28;20199;-87
2022/01/09 05:45:20;;;;;;;18.80;17.00;;;;;;;3.30;87.56;91728.81;5009723;28;20179;-88
2022/01/09 05:47:46;;;;;;;16.00;14.47;;;;;;;3.70;86.41;91743.56;5008825;28;20206;-90
2022/01/09 05:50:11;;;;;;;16.63;15.23;;;;;;;3.29;87.22;91736.78;5009768;28;20211;-77
2022/01/09 05:52:37;;;;;;;15.97;14.30;;;;;;;3.17;88.62;91759.47;5010505;28;20223;-87
2022/01/09 05:55:03;;;;;;;18.87;16.87;;;;;;;3.59;87.53;91762.63;5008554;28;20227;-90
2022/01/09 05:57:29;;;;;;;15.60;14.20;;;;;;;3.37;87.49;91759.50;5009923;28;20227;-89
2022/01/09 05:59:54;;;;;;;16.03;14.73;;;;;;;3.35;88.35;91755.66;5009924;28;20203;-91
2022/01/09 06:02:20;;;;;;;15.13;13.70;;;;;;;3.47;87.52;91754.34;5009532;28;21137;-90
2022/01/09 06:04:45;;;;;;;18.50;16.80;;;;;;;3.38;87.85;91739.66;5010031;28;20187;-90
2022/01/09 06:07:11;;;;;;;17.53;15.93;;;;;;;3.30;88.66;91741.69;5007925;28;20218;-84
2022/01/09 06:09:36;;;;;;;16.60;15.10;;;;;;;3.70;87.66;91742.78;5010621;28;20202;-88
2022/01/09 06:12:02;;;;;;;17.23;15.63;;;;;;;4.09;84.70;91726.50;5007996;28;20223;-88
2022/01/09 06:14:27;;;;;;;22.47;19.03;;;;;;;4.12;83.50;91720.81;5009000;28;20239;-86
2022/01/09 06:16:53;;;;;;;21.27;18.67;;;;;;;3.74;86.32;91739.41;5009136;28;20642;-88
2022/01/09 06:19:18;;;;;;;19.40;17.57;;;;;;;3.62;86.95;91720.06;5006842;28;20199;-88
2022/01/09 06:21:44;;;;;;;21.17;19.07;;;;;;;3.47;87.74;91727.78;5007420;28;20226;-87
2022/01/09 06:24:10;;;;;;;20.23;18.03;;;;;;;3.45;87.47;91715.16;5008241;28;20222;-89
2022/01/09 06:26:35;;;;;;;20.73;18.40;;;;;;;3.73;87.87;91735.28;5007647;28;20223;-88
2022/01/09 06:29:01;;;;;;;22.20;19.70;;;;;;;4.07;85.22;91718.22;5009264;28;20230;-89
2022/01/09 06:31:26;;;;;;;24.23;20.43;;;;;;;4.47;82.91;91725.09;5007290;28;20230;-90
2022/01/09 06:33:52;;;;;;;21.60;19.33;;;;;;;3.94;83.92;91718.75;5009412;28;20215;-91
2022/01/09 06:36:17;;;;;;;22.33;19.33;;;;;;;4.07;85.18;91736.31;5008479;28;20231;-85
2022/01/09 06:38:43;;;;;;;22.47;20.20;;;;;;;4.32;84.34;91736.25;5008459;28;20311;-88
2022/01/09 06:41:09;;;;;;;24.00;20.40;;;;;;;3.74;86.34;91736.84;5009723;28;20227;-89
2022/01/09 06:43:34;;;;;;;24.67;22.07;;;;;;;3.60;87.29;91737.59;5008216;28;20251;-89
2022/01/09 06:46:00;;;;;;;28.70;22.27;;;;;;;3.85;86.25;91704.81;5009217;28;20390;-88
2022/01/09 06:48:25;;;;;;;25.10;21.03;;;;;;;4.32;84.11;91730.31;5011635;28;20176;-82
2022/01/09 06:50:51;;;;;;;23.33;20.87;;;;;;;3.68;86.11;91722.38;5011979;28;20231;-78
2022/01/09 06:53:16;;;;;;;26.33;21.03;;;;;;;4.00;86.04;91732.44;5012009;28;20247;-79
2022/01/09 06:55:43;;;;;;;22.40;19.37;;;;;;;3.77;86.13;91726.00;5010032;28;20238;-82
2022/01/09 06:58:09;;;;;;;25.93;19.77;;;;;;;3.55;87.25;91737.63;5010229;28;20187;-78
2022/01/09 07:00:35;;;;;;;21.17;18.90;;;;;;;3.73;86.85;91722.38;5010780;28;20247;-80
2022/01/09 07:03:00;;;;;;;22.30;19.87;;;;;;;3.70;86.48;91711.81;5011868;28;20195;-79
2022/01/09 07:05:26;;;;;;;24.10;20.60;;;;;;;3.70;86.95;91724.72;5010245;28;20222;-79
2022/01/09 07:07:51;;;;;;;23.87;20.33;;;;;;;3.62;87.08;91723.41;5011161;28;20199;-82
2022/01/09 07:10:17;;;;;;;21.50;19.20;;;;;;;3.72;86.57;91714.91;5010264;28;20234;-80
2022/01/09 07:12:42;;;;;;;20.70;18.63;;;;;;;3.98;85.09;91724.97;5012115;28;20214;-80
2022/01/09 07:15:08;;;;;;;21.60;19.40;;;;;;;3.55;87.77;91729.88;5008484;28;21021;-79
2022/01/09 07:17:33;;;;;;;21.63;19.20;;;;;;;3.92;85.80;91731.13;5009366;28;20333;-81
2022/01/09 07:19:59;;;;;;;22.50;20.17;;;;;;;3.88;85.54;91743.03;5012585;28;20267;-87
2022/01/09 07:22:25;;;;;;;33.10;23.77;;;;;;;3.98;85.84;91750.78;5012655;28;20357;-89
2022/01/09 07:24:50;;;;;;;21.43;19.10;;;;;;;3.96;86.01;91732.19;5011869;28;20225;-84
2022/01/09 07:27:16;;;;;;;24.93;19.70;;;;;;;4.15;84.51;91715.13;5010227;28;20242;-80
2022/01/09 07:29:41;;;;;;;24.80;19.53;;;;;;;4.29;83.31;91710.19;5010008;28;20192;-83
2022/01/09 07:32:07;;;;;;;29.57;23.40;;;;;;;4.53;83.13;91750.66;5011737;28;20215;-80
2022/01/09 07:34:32;;;;;;;29.53;22.97;;;;;;;4.71;82.81;91764.84;5010222;28;20218;-83
2022/01/09 07:36:58;;;;;;;81.00;37.97;;;;;;;4.59;82.49;91731.53;5011373;28;20239;-78
2022/01/09 07:39:23;;;;;;;86.60;34.20;;;;;;;5.12;87.97;91737.75;5009699;28;20280;-80
2022/01/09 07:41:50;;;;;;;27.20;21.40;;;;;;;5.03;80.77;91731.59;5010962;28;20228;-80
2022/01/09 07:44:15;;;;;;;34.47;23.17;;;;;;;4.97;82.21;91735.25;5010638;28;20183;-80
2022/01/09 07:46:41;;;;;;;27.57;20.90;;;;;;;5.27;81.23;91736.91;5010122;28;20236;-80
2022/01/09 07:49:07;;;;;;;38.30;26.57;;;;;;;5.39;80.13;91742.53;5010743;28;20244;-81
2022/01/09 07:51:32;;;;;;;27.57;21.20;;;;;;;5.64;78.88;91742.38;5010124;28;20242;-79
2022/01/09 07:53:58;;;;;;;18.73;16.80;;;;;;;5.77;77.94;91739.19;5011882;28;20199;-81
2022/01/09 07:56:23;;;;;;;17.40;15.90;;;;;;;5.87;77.33;91731.34;5010540;28;20336;-81
2022/01/09 07:58:48;;;;;;;16.87;15.17;;;;;;;6.11;76.48;91735.59;5011419;28;20255;-82
2022/01/09 08:01:14;;;;;;;16.17;14.87;;;;;;;6.50;74.76;91738.06;5010336;28;20223;-80
2022/01/09 08:03:39;;;;;;;17.70;16.07;;;;;;;6.28;73.96;91701.47;5011830;28;20752;-83
2022/01/09 08:06:05;;;;;;;21.10;18.93;;;;;;;6.52;73.98;91723.00;5011549;28;20228;-80
2022/01/09 08:08:30;;;;;;;24.47;21.97;;;;;;;6.35;74.98;91717.50;5012259;28;20191;-80
2022/01/09 08:10:56;;;;;;;23.87;21.37;;;;;;;6.40;74.89;91723.38;5009445;28;20232;-80
2022/01/09 08:13:22;;;;;;;26.57;21.87;;;;;;;6.28;75.61;91712.63;5012189;28;20295;-79
2022/01/09 08:15:48;;;;;;;25.27;20.97;;;;;;;6.45;75.99;91722.56;5010045;28;20231;-81
2022/01/09 08:18:13;;;;;;;20.93;18.13;;;;;;;6.14;75.81;91696.16;5012034;28;20227;-79
2022/01/09 08:20:39;;;;;;;23.23;18.93;;;;;;;6.25;76.24;91708.00;5011670;28;20257;-79
2022/01/09 08:23:04;;;;;;;20.33;17.77;;;;;;;6.32;74.70;91690.28;5009590;28;20191;-79
2022/01/09 08:25:30;;;;;;;19.63;17.53;;;;;;;6.31;75.55;91708.69;5011018;28;20187;-79
2022/01/09 08:27:56;;;;;;;19.73;17.73;;;;;;;6.26;75.60;91685.41;5010855;28;20196;-79
2022/01/09 08:30:22;;;;;;;19.07;15.60;;;;;;;6.42;74.92;91707.56;5012030;28;20215;-79
2022/01/09 08:32:49;;;;;;;18.90;17.10;;;;;;;6.18;75.75;91702.34;5010248;28;20187;-81
2022/01/09 08:35:15;;;;;;;19.87;18.07;;;;;;;6.11;76.70;91699.31;5010157;28;20198;-79
2022/01/09 08:37:42;;;;;;;20.63;18.47;;;;;;;5.90;77.17;91692.00;5005912;28;20192;-78
2022/01/09 08:40:21;;;;;;;19.33;17.43;;;;;;;5.95;76.58;91690.13;5005974;28;20258;-81
2022/01/09 08:42:48;;;;;;;17.53;15.93;;;;;;;5.73;77.44;91689.75;5008865;28;20283;-81
2022/01/09 08:45:14;;;;;;;17.33;15.50;;;;;;;5.95;76.69;91697.13;5008192;28;20199;-80
2022/01/09 08:47:41;;;;;;;17.83;16.23;;;;;;;5.57;77.68;91687.56;5009295;28;20263;-80
2022/01/09 08:50:08;;;;;;;17.50;16.07;;;;;;;5.64;78.50;91711.31;5009125;28;20184;-83
2022/01/09 08:52:33;;;;;;;17.97;16.07;;;;;;;5.79;77.75;91691.25;5007076;28;20223;-81
2022/01/09 08:54:59;;;;;;;18.43;16.50;;;;;;;5.93;77.14;91675.91;5006454;28;20234;-80
2022/01/09 08:57:25;;;;;;;23.17;19.07;;;;;;;6.35;76.05;91697.50;5022481;28;20231;-80
2022/01/09 08:59:52;;;;;;;16.43;15.00;;;;;;;6.64;74.52;91701.88;5008769;28;20187;-81
2022/01/09 09:02:18;;;;;;;21.97;17.50;;;;;;;6.54;75.01;91697.56;5008631;28;20246;-84
2022/01/09 09:04:43;;;;;;;18.93;17.20;;;;;;;6.60;74.44;91672.38;5007585;28;20192;-84
2022/01/09 09:07:09;;;;;;;16.53;15.03;;;;;;;6.70;74.37;91683.41;5007916;28;20290;-77
2022/01/09 09:09:36;;;;;;;16.63;15.13;;;;;;;6.72;73.77;91655.38;5008401;28;20188;-76
2022/01/09 09:12:03;;;;;;;16.00;14.70;;;;;;;6.60;74.49;91667.19;5007197;28;20223;-79
2022/01/09 09:14:30;;;;;;;16.27;14.60;;;;;;;6.82;74.32;91677.81;5008918;28;20211;-78
2022/01/09 09:16:55;;;;;;;16.57;14.77;;;;;;;6.80;73.94;91656.56;5009345;28;20293;-78
2022/01/09 09:19:21;;;;;;;15.40;14.20;;;;;;;6.94;72.78;91655.59;5010308;28;20219;-77
2022/01/09 09:21:47;;;;;;;16.77;15.17;;;;;;;7.07;72.74;91657.50;5008148;28;20310;-76
2022/01/09 09:24:15;;;;;;;14.17;12.80;;;;;;;6.93;72.49;91612.53;5009858;28;20187;-80
2022/01/09 09:26:41;;;;;;;17.37;15.57;;;;;;;7.27;71.92;91614.94;5007056;28;20274;-80
2022/01/09 09:29:07;;;;;;;18.47;16.77;;;;;;;7.37;72.36;91640.72;5008243;28;20191;-82
2022/01/09 09:31:33;;;;;;;14.67;13.47;;;;;;;7.29;72.15;91634.34;5007248;28;20230;-86
2022/01/09 09:33:58;;;;;;;18.70;16.90;;;;;;;7.33;72.84;91632.72;5007213;28;20278;-78
2022/01/09 09:36:24;;;;;;;15.17;13.87;;;;;;;7.32;71.85;91622.63;5008355;28;20231;-82
2022/01/09 09:38:50;;;;;;;14.40;13.00;;;;;;;7.20;72.69;91620.47;5024231;28;20278;-86
2022/01/09 09:41:16;;;;;;;13.83;12.70;;;;;;;7.14;77.20;91600.84;5009297;28;20238;-88
2022/01/09 09:43:41;;;;;;;15.77;14.37;;;;;;;7.09;73.78;91603.50;5010786;28;20506;-82
2022/01/09 09:46:07;;;;;;;14.50;13.40;;;;;;;7.27;73.10;91609.75;5008815;28;20290;-85
2022/01/09 09:48:32;;;;;;;14.47;13.33;;;;;;;7.18;73.22;91616.59;5008858;28;20202;-81
2022/01/09 09:50:58;;;;;;;14.57;13.27;;;;;;;7.31;72.52;91608.91;5008936;28;20251;-87
2022/01/09 09:53:23;;;;;;;14.63;13.43;;;;;;;7.16;72.37;91588.34;5008038;28;20227;-85
2022/01/09 09:55:51;;;;;;;15.67;14.40;;;;;;;7.40;72.64;91602.00;5009135;28;20224;-84
2022/01/09 09:58:18;;;;;;;14.93;13.73;;;;;;;7.47;72.32;91596.44;5005300;28;20187;-85
2022/01/09 10:00:52;;;;;;;15.63;14.00;;;;;;;7.55;71.15;91580.97;5007878;28;20282;-87
2022/01/09 10:03:27;;;;;;;15.93;14.27;;;;;;;7.54;71.31;91589.84;5008566;28;20192;-86
2022/01/09 10:05:52;;;;;;;16.73;15.27;;;;;;;7.53;72.19;91593.47;5008844;28;20281;-87
2022/01/09 10:08:19;;;;;;;16.30;14.33;;;;;;;7.46;72.25;91589.69;5010276;28;20202;-84
2022/01/09 10:10:45;;;;;;;17.10;15.33;;;;;;;7.57;71.58;91585.88;5008897;28;20242;-85
2022/01/09 10:13:19;;;;;;;16.53;15.03;;;;;;;7.77;70.89;91581.13;5008347;28;20667;-87
2022/01/09 10:15:51;;;;;;;17.53;15.10;;;;;;;7.91;70.69;91589.72;5009265;28;21635;-87
2022/01/09 10:18:54;;;;;;;16.17;14.57;;;;;;;8.65;68.27;91593.03;5009253;28;20213;-87
2022/01/09 10:21:23;;;;;;;16.00;14.60;;;;;;;8.77;67.97;91601.09;5012360;28;20237;-86
2022/01/09 10:24:02;;;;;;;15.47;14.23;;;;;;;9.07;66.67;91590.06;5014245;28;20187;-86
2022/01/09 10:26:29;;;;;;;16.77;15.27;;;;;;;8.55;67.48;91567.22;5012883;28;20222;-87
2022/01/09 10:28:56;;;;;;;16.13;14.57;;;;;;;8.59;67.59;91561.13;5012704;28;20321;-87
2022/01/09 10:31:21;;;;;;;14.87;13.63;;;;;;;9.00;65.83;91566.25;5013545;28;20246;-86
2022/01/09 10:34:07;;;;;;;15.43;14.10;;;;;;;8.77;66.71;91588.09;5010507;28;20195;-87
2022/01/09 10:36:48;;;;;;;15.47;14.07;;;;;;;8.79;67.44;91578.94;5012659;28;20839;-84
2022/01/09 10:39:26;;;;;;;15.70;14.27;;;;;;;8.87;66.76;91580.84;5013091;28;20235;-87
2022/01/09 10:41:56;;;;;;;20.43;18.17;;;;;;;9.04;66.71;91565.38;5009692;28;20223;-86
2022/01/09 10:44:30;;;;;;;16.30;14.90;;;;;;;9.18;65.83;91560.13;5012935;28;20191;-86
2022/01/09 10:46:59;;;;;;;15.47;14.17;;;;;;;9.25;65.36;91561.25;5013331;28;20234;-83
2022/01/09 10:49:36;;;;;;;15.70;14.23;;;;;;;9.38;65.35;91541.44;5012830;28;20201;-86
2022/01/09 10:52:18;;;;;;;15.13;13.70;;;;;;;9.42;65.33;91556.16;5011781;28;20238;-86
2022/01/09 10:54:48;;;;;;;14.47;13.10;;;;;;;9.07;65.60;91556.22;5012986;28;20227;-83
2022/01/09 10:57:17;;;;;;;16.50;15.03;;;;;;;8.99;66.46;91554.31;5012973;28;20223;-87
2022/01/09 10:59:44;;;;;;;15.60;13.90;;;;;;;8.96;66.36;91544.50;5011400;28;20211;-87
2022/01/09 11:02:10;;;;;;;15.23;13.77;;;;;;;9.15;65.70;91560.72;5011092;28;20231;-85
2022/01/09 11:04:36;;;;;;;16.67;13.33;;;;;;;8.82;66.39;91531.53;5012654;28;20192;-89
2022/01/09 11:07:03;;;;;;;15.03;13.60;;;;;;;8.79;66.33;91531.34;5013175;28;20243;-83
2022/01/09 11:09:30;;;;;;;14.93;13.73;;;;;;;8.23;69.30;91549.91;5012600;28;20195;-86
2022/01/09 11:11:56;;;;;;;15.43;13.87;;;;;;;8.90;66.95;91525.59;5011850;28;20261;-85
2022/01/09 11:14:23;;;;;;;15.70;14.40;;;;;;;9.06;65.71;91526.03;5012958;28;20219;-86
2022/01/09 11:16:51;;;;;;;15.60;14.00;;;;;;;9.44;65.81;91540.25;5011240;28;20227;-85
2022/01/09 11:19:24;;;;;;;15.67;14.17;;;;;;;9.37;64.42;91526.88;5011670;28;20201;-85
2022/01/09 11:21:59;;;;;;;17.20;15.70;;;;;;;9.12;64.96;91530.06;5013410;28;20231;-83
2022/01/09 11:24:46;;;;;;;15.83;14.43;;;;;;;8.79;66.75;91526.91;5012102;28;20201;-84